Search for airport 
image banner adimage banner adimage banner ad
image banner ad

2CA0 - Ash Mountain

Located in Three Rivers, United States

ICAO - 2CA0, IATA -

Data provided by Airmate  

General information

Coordinates: N36°29'13" W118°50'24"
Elevation is 1690 feet MSL.
Magnetic variation is 15° East
View others Airports in California

Operational data

Special qualification required
Current time UTC:
Current local time:
Weather at : KVIS - Visalia Muni ( 53 km )
METAR: KVIS 260756Z AUTO 00000KT 10SM CLR 20/13 A2993 RMK AO2 SLP138 T02000128 403060150
TAF: KVIS 252320Z 2600/2624 14003KT P6SM SCT020
View NOTAMs / SUP AIP / TFR affecting this airport [VIEW]
Communications frequencies: [VIEW]

Runways:

Airport contact information

Address: Three Rivers United States

Satellite view of 2CA0